Time,TemperatureF,DewpointF,PressureIn,WindDirection,WindDirectionDegrees,WindSpeedMPH,WindSpeedGustMPH,Humidity,HourlyPrecipIn,Conditions,Clouds,dailyrainin,SoftwareType,DateUTC
2013-06-13 00:14:00,52.3,26.8,30.07,East,90,0.0,-999.0,37,-99.99,,,0.00,Acu-Link.com,2013-06-13 06:14:00,
2013-06-13 00:29:00,52.0,27.2,30.08,East,90,1.7,-999.0,38,-99.99,,,0.00,Acu-Link.com,2013-06-13 06:29:00,
2013-06-13 00:44:00,51.6,26.8,30.08,East,90,2.2,-999.0,38,-99.99,,,0.00,Acu-Link.com,2013-06-13 06:44:00,
2013-06-13 00:59:00,51.4,27.3,30.07,East,90,1.7,-999.0,39,-99.99,,,0.00,Acu-Link.com,2013-06-13 06:59:00,
2013-06-13 01:14:00,51.1,27.6,30.07,East,90,0.0,-999.0,40,-99.99,,,0.00,Acu-Link.com,2013-06-13 07:14:00,
2013-06-13 01:29:00,51.4,26.7,30.07,East,90,0.0,-999.0,38,-99.99,,,0.00,Acu-Link.com,2013-06-13 07:29:00,
2013-06-13 01:44:00,51.6,26.8,30.06,East,90,0.0,-999.0,38,-99.99,,,0.00,Acu-Link.com,2013-06-13 07:44:00,
2013-06-13 01:59:00,51.3,25.9,30.06,East,90,0.0,-999.0,37,-99.99,,,0.00,Acu-Link.com,2013-06-13 07:59:00,
2013-06-13 02:15:00,51.4,26.7,30.05,East,90,0.0,-999.0,38,-99.99,,,0.00,Acu-Link.com,2013-06-13 08:15:00,
2013-06-13 02:30:00,51.4,25.4,30.05,East,90,1.7,-999.0,36,-99.99,,,0.00,Acu-Link.com,2013-06-13 08:30:00,
2013-06-13 02:45:00,51.4,24.7,30.06,East,90,1.7,-999.0,35,-99.99,,,0.00,Acu-Link.com,2013-06-13 08:45:00,
2013-06-13 03:00:00,51.8,24.3,30.05,East,90,2.2,-999.0,34,-99.99,,,0.00,Acu-Link.com,2013-06-13 09:00:00,
2013-06-13 03:15:00,51.4,24.0,30.06,East,90,1.1,-999.0,34,-99.99,,,0.00,Acu-Link.com,2013-06-13 09:15:00,
2013-06-13 03:30:00,51.3,23.2,30.04,East,90,1.1,-999.0,33,-99.99,,,0.00,Acu-Link.com,2013-06-13 09:30:00,
2013-06-13 03:46:00,52.3,22.6,30.04,East,90,2.2,-999.0,31,-99.99,,,0.00,Acu-Link.com,2013-06-13 09:46:00,
2013-06-13 04:01:00,51.6,22.7,30.04,East,90,1.7,-999.0,32,-99.99,,,0.00,Acu-Link.com,2013-06-13 10:01:00,
2013-06-13 04:16:00,51.1,22.3,30.04,East,90,2.2,-999.0,32,-99.99,,,0.00,Acu-Link.com,2013-06-13 10:16:00,
2013-06-13 04:31:00,50.4,22.4,30.04,East,90,0.0,-999.0,33,-99.99,,,0.00,Acu-Link.com,2013-06-13 10:31:00,
2013-06-13 04:46:00,50.2,22.2,30.04,East,90,3.2,-999.0,33,-99.99,,,0.00,Acu-Link.com,2013-06-13 10:46:00,
2013-06-13 05:01:00,50.7,21.9,30.04,East,90,1.7,-999.0,32,-99.99,,,0.00,Acu-Link.com,2013-06-13 11:01:00,
2013-06-13 05:16:00,50.7,21.9,30.04,East,90,1.1,-999.0,32,-99.99,,,0.00,Acu-Link.com,2013-06-13 11:16:00,
2013-06-13 05:31:00,50.9,22.8,30.04,East,90,2.2,-999.0,33,-99.99,,,0.00,Acu-Link.com,2013-06-13 11:31:00,
2013-06-13 05:46:00,51.3,22.5,30.04,East,90,1.7,-999.0,32,-99.99,,,0.00,Acu-Link.com,2013-06-13 11:46:00,
2013-06-13 06:01:00,51.3,22.5,30.04,East,90,1.1,-999.0,32,-99.99,,,0.00,Acu-Link.com,2013-06-13 12:01:00,
2013-06-13 06:17:00,50.9,23.5,30.05,East,90,0.0,-999.0,34,-99.99,,,0.00,Acu-Link.com,2013-06-13 12:17:00,
2013-06-13 06:32:00,52.5,25.7,30.05,East,90,5.8,-999.0,35,-99.99,,,0.00,Acu-Link.com,2013-06-13 12:32:00,
2013-06-13 06:47:00,53.4,25.7,30.04,East,90,1.7,-999.0,34,-99.99,,,0.00,Acu-Link.com,2013-06-13 12:47:00,
2013-06-13 07:02:00,53.6,27.3,30.05,East,90,2.7,-999.0,36,-99.99,,,0.00,Acu-Link.com,2013-06-13 13:02:00,
2013-06-13 07:17:00,54.1,28.4,30.04,East,90,2.2,-999.0,37,-99.99,,,0.00,Acu-Link.com,2013-06-13 13:17:00,
2013-06-13 07:32:00,55.2,28.7,30.04,East,90,2.2,-999.0,36,-99.99,,,0.00,Acu-Link.com,2013-06-13 13:32:00,
2013-06-13 07:47:00,55.9,30.0,30.04,East,90,2.7,-999.0,37,-99.99,,,0.00,Acu-Link.com,2013-06-13 13:47:00,
2013-06-13 08:02:00,57.7,30.9,30.04,East,90,1.7,-999.0,36,-99.99,,,0.00,Acu-Link.com,2013-06-13 14:02:00,
2013-06-13 08:17:00,59.0,32.1,30.05,East,90,1.7,-999.0,36,-99.99,,,0.00,Acu-Link.com,2013-06-13 14:17:00,
2013-06-13 08:33:00,59.5,31.1,30.04,East,90,1.1,-999.0,34,-99.99,,,0.00,Acu-Link.com,2013-06-13 14:33:00,
2013-06-13 08:48:00,61.7,32.3,30.05,East,90,1.7,-999.0,33,-99.99,,,0.00,Acu-Link.com,2013-06-13 14:48:00,
2013-06-13 09:03:00,61.2,33.3,30.05,East,90,1.7,-999.0,35,-99.99,,,0.00,Acu-Link.com,2013-06-13 15:03:00,
2013-06-13 09:18:00,60.8,30.8,30.05,East,90,2.2,-999.0,32,-99.99,,,0.00,Acu-Link.com,2013-06-13 15:18:00,
2013-06-13 09:33:00,61.3,31.2,30.04,East,90,2.2,-999.0,32,-99.99,,,0.00,Acu-Link.com,2013-06-13 15:33:00,
2013-06-13 09:48:00,61.9,31.7,30.04,East,90,2.2,-999.0,32,-99.99,,,0.00,Acu-Link.com,2013-06-13 15:48:00,
2013-06-13 10:03:00,62.4,31.4,30.05,WSW,247,3.2,-999.0,31,-99.99,,,0.00,Acu-Link.com,2013-06-13 16:03:00,
2013-06-13 10:18:00,63.9,31.9,30.04,South,180,2.2,-999.0,30,-99.99,,,0.00,Acu-Link.com,2013-06-13 16:18:00,
2013-06-13 10:33:00,63.3,32.2,30.05,ESE,112,1.7,-999.0,31,-99.99,,,0.00,Acu-Link.com,2013-06-13 16:33:00,
2013-06-13 10:49:00,67.1,33.8,30.05,South,180,2.7,-999.0,29,-99.99,,,0.00,Acu-Link.com,2013-06-13 16:49:00,
2013-06-13 11:04:00,69.3,32.9,30.05,East,90,7.8,-999.0,26,-99.99,,,0.00,Acu-Link.com,2013-06-13 17:04:00,
2013-06-13 11:19:00,69.3,33.9,30.05,East,90,5.8,-999.0,27,-99.99,,,0.00,Acu-Link.com,2013-06-13 17:19:00,
2013-06-13 11:34:00,68.5,34.1,30.05,WSW,247,4.2,-999.0,28,-99.99,,,0.00,Acu-Link.com,2013-06-13 17:34:00,
2013-06-13 11:49:00,69.4,34.0,30.05,West,270,4.2,-999.0,27,-99.99,,,0.00,Acu-Link.com,2013-06-13 17:49:00,
2013-06-13 12:04:00,67.1,32.9,30.05,West,270,0.0,-999.0,28,-99.99,,,0.00,Acu-Link.com,2013-06-13 18:04:00,
2013-06-13 12:19:00,71.2,34.6,30.04,ENE,67,2.7,-999.0,26,-99.99,,,0.00,Acu-Link.com,2013-06-13 18:19:00,
2013-06-13 12:34:00,72.9,32.9,30.03,West,270,3.2,-999.0,23,-99.99,,,0.00,Acu-Link.com,2013-06-13 18:34:00,
2013-06-13 12:49:00,68.0,32.8,30.03,East,90,4.2,-999.0,27,-99.99,,,0.00,Acu-Link.com,2013-06-13 18:49:00,
2013-06-13 13:05:00,67.3,32.2,30.03,WSW,247,3.7,-999.0,27,-99.99,,,0.00,Acu-Link.com,2013-06-13 19:05:00,
2013-06-13 13:20:00,70.3,31.8,30.02,SE,135,2.7,-999.0,24,-99.99,,,0.00,Acu-Link.com,2013-06-13 19:20:00,
2013-06-13 13:35:00,70.2,32.7,30.02,West,270,5.3,-999.0,25,-99.99,,,0.00,Acu-Link.com,2013-06-13 19:35:00,
2013-06-13 13:50:00,69.6,31.2,30.01,South,180,5.8,-999.0,24,-99.99,,,0.00,Acu-Link.com,2013-06-13 19:50:00,
2013-06-13 14:05:00,68.9,29.6,30.00,West,270,4.7,-999.0,23,-99.99,,,0.00,Acu-Link.com,2013-06-13 20:05:00,
2013-06-13 14:20:00,68.4,30.2,30.00,SSE,157,3.2,-999.0,24,-99.99,,,0.00,Acu-Link.com,2013-06-13 20:20:00,
2013-06-13 14:36:00,68.5,31.3,29.99,WSW,247,4.2,-999.0,25,-99.99,,,0.00,Acu-Link.com,2013-06-13 20:36:00,
2013-06-13 14:51:00,68.2,30.0,30.00,WSW,247,2.7,-999.0,24,-99.99,,,0.00,Acu-Link.com,2013-06-13 20:51:00,
2013-06-13 15:06:00,68.5,32.3,29.99,ESE,112,4.7,-999.0,26,-99.99,,,0.00,Acu-Link.com,2013-06-13 21:06:00,
2013-06-13 15:21:00,69.1,30.8,29.98,South,180,6.8,-999.0,24,-99.99,,,0.00,Acu-Link.com,2013-06-13 21:21:00,
2013-06-13 15:36:00,70.3,31.8,29.98,South,180,5.8,-999.0,24,-99.99,,,0.00,Acu-Link.com,2013-06-13 21:36:00,
2013-06-13 15:51:00,70.7,32.1,29.98,South,180,6.8,-999.0,24,-99.99,,,0.00,Acu-Link.com,2013-06-13 21:51:00,
2013-06-13 16:07:00,69.6,31.2,29.97,South,180,11.9,-999.0,24,-99.99,,,0.00,Acu-Link.com,2013-06-13 22:07:00,
2013-06-13 16:22:00,68.7,30.5,29.96,ESE,112,4.7,-999.0,24,-99.99,,,0.00,Acu-Link.com,2013-06-13 22:22:00,
2013-06-13 16:37:00,71.1,30.3,29.96,South,180,3.7,-999.0,22,-99.99,,,0.00,Acu-Link.com,2013-06-13 22:37:00,
2013-06-13 16:53:00,68.7,30.5,29.95,ESE,112,2.7,-999.0,24,-99.99,,,0.00,Acu-Link.com,2013-06-13 22:53:00,
2013-06-13 17:08:00,68.9,30.6,29.95,SE,135,4.2,-999.0,24,-99.99,,,0.00,Acu-Link.com,2013-06-13 23:08:00,
2013-06-13 17:23:00,68.2,29.0,29.94,ENE,67,4.2,-999.0,23,-99.99,,,0.00,Acu-Link.com,2013-06-13 23:23:00,
2013-06-13 17:38:00,68.4,29.2,29.94,West,270,6.3,-999.0,23,-99.99,,,0.00,Acu-Link.com,2013-06-13 23:38:00,
2013-06-13 17:53:00,68.4,29.2,29.93,East,90,8.9,-999.0,23,-99.99,,,0.00,Acu-Link.com,2013-06-13 23:53:00,
2013-06-13 18:08:00,67.6,29.5,29.93,WSW,247,2.7,-999.0,24,-99.99,,,0.00,Acu-Link.com,2013-06-14 00:08:00,
2013-06-13 18:24:00,67.3,29.3,29.93,East,90,2.7,-999.0,24,-99.99,,,0.00,Acu-Link.com,2013-06-14 00:24:00,
2013-06-13 18:39:00,67.5,29.4,29.92,SSW,202,4.2,-999.0,24,-99.99,,,0.00,Acu-Link.com,2013-06-14 00:39:00,
2013-06-13 18:54:00,66.0,27.1,29.92,West,270,12.5,-999.0,23,-99.99,,,0.00,Acu-Link.com,2013-06-14 00:54:00,
2013-06-13 19:09:00,66.0,27.1,29.92,West,270,6.3,-999.0,23,-99.99,,,0.00,Acu-Link.com,2013-06-14 01:09:00,
2013-06-13 19:24:00,65.1,27.4,29.92,West,270,3.7,-999.0,24,-99.99,,,0.00,Acu-Link.com,2013-06-14 01:24:00,
2013-06-13 19:39:00,64.8,28.2,29.92,West,270,3.7,-999.0,25,-99.99,,,0.00,Acu-Link.com,2013-06-14 01:39:00,
2013-06-13 19:54:00,64.2,27.6,29.91,ESE,112,5.3,-999.0,25,-99.99,,,0.00,Acu-Link.com,2013-06-14 01:54:00,
2013-06-13 20:10:00,63.3,27.8,29.92,SW,225,5.8,-999.0,26,-99.99,,,0.00,Acu-Link.com,2013-06-14 02:10:00,
2013-06-13 20:25:00,62.1,27.7,29.92,WNW,292,1.1,-999.0,27,-99.99,,,0.00,Acu-Link.com,2013-06-14 02:25:00,
2013-06-13 20:40:00,61.3,27.9,29.91,South,180,2.7,-999.0,28,-99.99,,,0.00,Acu-Link.com,2013-06-14 02:40:00,
2013-06-13 20:55:00,60.4,28.0,29.92,West,270,2.2,-999.0,29,-99.99,,,0.00,Acu-Link.com,2013-06-14 02:55:00,
2013-06-13 21:10:00,59.4,28.0,29.91,SW,225,5.8,-999.0,30,-99.99,,,0.00,Acu-Link.com,2013-06-14 03:10:00,
2013-06-13 21:25:00,58.6,28.1,29.91,South,180,4.7,-999.0,31,-99.99,,,0.00,Acu-Link.com,2013-06-14 03:25:00,
2013-06-13 21:40:00,58.1,27.6,29.92,South,180,2.2,-999.0,31,-99.99,,,0.00,Acu-Link.com,2013-06-14 03:40:00,
2013-06-13 21:55:00,57.6,28.0,29.92,South,180,2.7,-999.0,32,-99.99,,,0.00,Acu-Link.com,2013-06-14 03:55:00,
2013-06-13 22:10:00,57.0,28.2,29.92,SSW,202,1.7,-999.0,33,-99.99,,,0.00,Acu-Link.com,2013-06-14 04:10:00,
2013-06-13 22:25:00,56.8,28.0,29.92,WSW,247,2.2,-999.0,33,-99.99,,,0.00,Acu-Link.com,2013-06-14 04:25:00,
2013-06-13 22:41:00,56.7,27.9,29.91,SSW,202,2.7,-999.0,33,-99.99,,,0.00,Acu-Link.com,2013-06-14 04:41:00,
2013-06-13 22:56:00,56.3,28.3,29.92,SSE,157,2.2,-999.0,34,-99.99,,,0.00,Acu-Link.com,2013-06-14 04:56:00,
2013-06-13 23:11:00,55.9,29.3,29.92,WSW,247,3.7,-999.0,36,-99.99,,,0.00,Acu-Link.com,2013-06-14 05:11:00,
2013-06-13 23:26:00,55.0,29.2,29.91,ESE,112,2.7,-999.0,37,-99.99,,,0.00,Acu-Link.com,2013-06-14 05:26:00,
2013-06-13 23:41:00,54.1,28.4,29.91,ESE,112,1.1,-999.0,37,-99.99,,,0.00,Acu-Link.com,2013-06-14 05:41:00,
2013-06-13 23:56:00,53.2,27.6,29.90,ESE,112,2.2,-999.0,37,-99.99,,,0.00,Acu-Link.com,2013-06-14 05:56:00,